sensor_id;sensor_type;location;lat;lon;timestamp;pressure;altitude;pressure_sealevel;temperature;humidity
62111;BME280;48102;47.526;19.072;2023-02-20T04:45:03;101310.78;;;2.54;100.00
62111;BME280;48102;47.526;19.072;2023-02-20T04:48:07;101310.78;;;2.54;100.00
62111;BME280;48102;47.526;19.072;2023-02-20T04:51:10;101305.59;;;2.07;100.00
62111;BME280;48102;47.526;19.072;2023-02-20T04:54:14;101289.16;;;2.18;100.00
62111;BME280;48102;47.526;19.072;2023-02-20T04:57:18;101289.12;;;2.23;100.00
62111;BME280;48102;47.526;19.072;2023-02-20T05:00:22;101292.59;;;2.23;100.00
62111;BME280;48102;47.526;19.072;2023-02-20T05:03:25;101292.59;;;2.31;100.00
62111;BME280;48102;47.526;19.072;2023-02-20T05:06:28;101283.09;;;2.25;100.00
62111;BME280;48102;47.526;19.072;2023-02-20T05:09:31;101287.41;;;2.26;100.00
62111;BME280;48102;47.526;19.072;2023-02-20T05:12:34;101287.41;;;2.39;100.00
62111;BME280;48102;47.526;19.072;2023-02-20T05:15:37;101303.00;;;2.40;100.00
62111;BME280;48102;47.526;19.072;2023-02-20T05:18:40;101293.47;;;2.39;100.00
62111;BME280;48102;47.526;19.072;2023-02-20T05:21:44;101303.88;;;2.39;100.00
62111;BME280;48102;47.526;19.072;2023-02-20T05:25:06;101308.19;;;2.48;100.00
62111;BME280;48102;47.526;19.072;2023-02-20T05:28:09;101309.06;;;2.56;100.00
62111;BME280;48102;47.526;19.072;2023-02-20T05:31:13;101309.06;;;2.50;100.00
62111;BME280;48102;47.526;19.072;2023-02-20T05:34:19;101304.75;;;2.50;100.00
62111;BME280;48102;47.526;19.072;2023-02-20T05:37:27;101319.47;;;2.48;100.00
62111;BME280;48102;47.526;19.072;2023-02-20T05:40:30;101321.19;;;2.49;100.00
62111;BME280;48102;47.526;19.072;2023-02-20T05:43:34;101328.13;;;2.49;100.00
62111;BME280;48102;47.526;19.072;2023-02-20T05:46:40;101318.59;;;2.59;100.00
62111;BME280;48102;47.526;19.072;2023-02-20T05:49:46;101327.25;;;2.62;100.00
62111;BME280;48102;47.526;19.072;2023-02-20T05:52:49;101323.81;;;2.68;100.00
62111;BME280;48102;47.526;19.072;2023-02-20T05:55:52;101331.59;;;2.69;100.00
62111;BME280;48102;47.526;19.072;2023-02-20T05:58:55;101333.31;;;2.76;100.00
62111;BME280;48102;47.526;19.072;2023-02-20T06:01:59;101330.69;;;2.72;100.00
62111;BME280;48102;47.526;19.072;2023-02-20T06:05:03;101333.28;;;2.80;100.00
62111;BME280;48102;47.526;19.072;2023-02-20T06:08:07;101333.31;;;2.81;100.00
62111;BME280;48102;47.526;19.072;2023-02-20T06:11:11;101337.66;;;2.85;100.00
62111;BME280;48102;47.526;19.072;2023-02-20T06:14:15;101345.44;;;2.91;100.00
62111;BME280;48102;47.526;19.072;2023-02-20T06:17:20;101351.47;;;3.07;100.00
62111;BME280;48102;47.526;19.072;2023-02-20T06:20:23;101356.66;;;3.09;100.00
62111;BME280;48102;47.526;19.072;2023-02-20T06:23:26;101359.28;;;3.09;100.00
62111;BME280;48102;47.526;19.072;2023-02-20T06:26:28;101351.44;;;3.21;100.00
62111;BME280;48102;47.526;19.072;2023-02-20T06:29:31;101352.22;;;3.32;100.00
62111;BME280;48102;47.526;19.072;2023-02-20T06:32:34;101353.06;;;3.46;100.00
62111;BME280;48102;47.526;19.072;2023-02-20T06:35:37;101354.75;;;3.52;100.00
62111;BME280;48102;47.526;19.072;2023-02-20T06:38:40;101351.28;;;3.53;100.00
62111;BME280;48102;47.526;19.072;2023-02-20T06:41:43;101359.06;;;3.64;100.00
62111;BME280;48102;47.526;19.072;2023-02-20T06:44:46;101360.78;;;3.62;100.00
62111;BME280;48102;47.526;19.072;2023-02-20T06:47:50;101355.59;;;3.63;100.00
62111;BME280;48102;47.526;19.072;2023-02-20T06:50:54;101360.72;;;3.80;100.00
62111;BME280;48102;47.526;19.072;2023-02-20T06:54:00;101361.47;;;3.96;100.00
62111;BME280;48102;47.526;19.072;2023-02-20T06:57:03;101353.62;;;4.02;100.00
62111;BME280;48102;47.526;19.072;2023-02-20T07:00:07;101358.78;;;4.08;100.00
62111;BME280;48102;47.526;19.072;2023-02-20T07:03:16;101360.50;;;4.12;96.36
62111;BME280;48102;47.526;19.072;2023-02-20T07:06:19;101357.88;;;4.14;98.11
62111;BME280;48102;47.526;19.072;2023-02-20T07:09:22;101373.50;;;4.18;97.37
62111;BME280;48102;47.526;19.072;2023-02-20T07:12:31;101360.47;;;4.14;97.05
62111;BME280;48102;47.526;19.072;2023-02-20T07:15:37;101349.19;;;4.16;98.37
62111;BME280;48102;47.526;19.072;2023-02-20T07:18:42;101350.97;;;4.11;100.00
62111;BME280;48102;47.526;19.072;2023-02-20T07:21:46;101358.81;;;4.03;100.00
62111;BME280;48102;47.526;19.072;2023-02-20T07:24:50;101363.13;;;4.09;100.00
62111;BME280;48102;47.526;19.072;2023-02-20T07:27:53;101345.75;;;4.08;100.00
62111;BME280;48102;47.526;19.072;2023-02-20T07:30:57;101357.06;;;4.06;100.00
62111;BME280;48102;47.526;19.072;2023-02-20T07:33:59;101350.09;;;4.09;100.00
62111;BME280;48102;47.526;19.072;2023-02-20T07:37:08;101353.53;;;4.16;100.00
62111;BME280;48102;47.526;19.072;2023-02-20T07:40:11;101372.53;;;4.36;100.00
62111;BME280;48102;47.526;19.072;2023-02-20T07:43:15;101368.66;;;4.80;100.00
62111;BME280;48102;47.526;19.072;2023-02-20T07:46:17;101364.03;;;5.05;100.00
62111;BME280;48102;47.526;19.072;2023-02-20T07:49:22;101356.91;;;5.22;100.00
62111;BME280;48102;47.526;19.072;2023-02-20T07:52:25;101358.59;;;5.25;100.00
62111;BME280;48102;47.526;19.072;2023-02-20T07:55:28;101358.44;;;5.40;100.00
62111;BME280;48102;47.526;19.072;2023-02-20T07:58:31;101349.66;;;5.43;97.51
62111;BME280;48102;47.526;19.072;2023-02-20T08:01:34;101345.25;;;5.46;99.56
62111;BME280;48102;47.526;19.072;2023-02-20T08:04:37;101366.31;;;5.34;98.90
62111;BME280;48102;47.526;19.072;2023-02-20T08:07:44;101365.47;;;5.34;100.00
62111;BME280;48102;47.526;19.072;2023-02-20T08:10:48;101351.38;;;5.45;100.00
62111;BME280;48102;47.526;19.072;2023-02-20T08:14:02;101351.91;;;5.72;100.00
62111;BME280;48102;47.526;19.072;2023-02-20T08:17:06;101346.13;;;6.12;100.00
62111;BME280;48102;47.526;19.072;2023-02-20T08:20:08;101352.66;;;6.39;100.00
62111;BME280;48102;47.526;19.072;2023-02-20T08:23:16;101353.25;;;6.58;99.05
62111;BME280;48102;47.526;19.072;2023-02-20T08:26:19;101355.50;;;6.79;94.73
62111;BME280;48102;47.526;19.072;2023-02-20T08:29:22;101351.69;;;6.95;95.29
62111;BME280;48102;47.526;19.072;2023-02-20T08:32:25;101355.50;;;7.24;97.22
62111;BME280;48102;47.526;19.072;2023-02-20T08:35:28;101339.56;;;7.35;95.27
62111;BME280;48102;47.526;19.072;2023-02-20T08:38:36;101331.59;;;7.39;93.05
62111;BME280;48102;47.526;19.072;2023-02-20T08:41:44;101334.94;;;7.46;92.44
62111;BME280;48102;47.526;19.072;2023-02-20T08:44:49;101328.87;;;7.44;94.19
62111;BME280;48102;47.526;19.072;2023-02-20T08:47:56;101325.41;;;7.42;94.38
62111;BME280;48102;47.526;19.072;2023-02-20T08:51:04;101320.03;;;7.49;94.11
62111;BME280;48102;47.526;19.072;2023-02-20T08:54:08;101329.13;;;7.72;88.40
62111;BME280;48102;47.526;19.072;2023-02-20T08:57:12;101324.63;;;7.78;86.41
62111;BME280;48102;47.526;19.072;2023-02-20T09:00:15;101328.37;;;8.05;90.62
62111;BME280;48102;47.526;19.072;2023-02-20T09:03:20;101327.12;;;8.22;90.59
62111;BME280;48102;47.526;19.072;2023-02-20T09:06:23;101324.25;;;8.31;87.86
62111;BME280;48102;47.526;19.072;2023-02-20T09:09:27;101316.81;;;8.50;88.22
62111;BME280;48102;47.526;19.072;2023-02-20T09:12:32;101320.66;;;8.71;86.55
62111;BME280;48102;47.526;19.072;2023-02-20T09:15:35;101315.81;;;8.88;86.52
62111;BME280;48102;47.526;19.072;2023-02-20T09:18:42;101311.47;;;8.87;80.05
62111;BME280;48102;47.526;19.072;2023-02-20T09:21:46;101301.19;;;9.09;80.94
62111;BME280;48102;47.526;19.072;2023-02-20T09:24:50;101303.00;;;9.38;80.86
62111;BME280;48102;47.526;19.072;2023-02-20T09:31:54;101301.53;;;9.28;80.56
62111;BME280;48102;47.526;19.072;2023-02-20T09:34:57;101281.63;;;9.19;82.14
62111;BME280;48102;47.526;19.072;2023-02-20T09:38:00;101296.25;;;9.29;87.81
62111;BME280;48102;47.526;19.072;2023-02-20T09:41:04;101291.34;;;9.47;84.35
62111;BME280;48102;47.526;19.072;2023-02-20T09:44:23;101293.81;;;9.81;83.19
62111;BME280;48102;47.526;19.072;2023-02-20T09:50:58;101294.22;;;9.95;84.88
62111;BME280;48102;47.526;19.072;2023-02-20T09:54:09;101279.88;;;9.77;87.61
62111;BME280;48102;47.526;19.072;2023-02-20T09:57:21;101281.75;;;10.00;91.67
62111;BME280;48102;47.526;19.072;2023-02-20T10:00:35;101272.31;;;10.21;93.88
62111;BME280;48102;47.526;19.072;2023-02-20T10:04:15;101250.91;;;10.32;92.83
62111;BME280;48102;47.526;19.072;2023-02-20T10:07:36;101255.31;;;10.57;91.39
62111;BME280;48102;47.526;19.072;2023-02-20T10:10:40;101234.72;;;10.91;84.30
62111;BME280;48102;47.526;19.072;2023-02-20T10:23:55;101237.00;;;10.27;87.09
62111;BME280;48102;47.526;19.072;2023-02-20T10:30:40;101221.72;;;10.38;86.40
62111;BME280;48102;47.526;19.072;2023-02-20T10:33:50;101220.31;;;10.28;86.81
62111;BME280;48102;47.526;19.072;2023-02-20T10:37:01;101214.66;;;10.64;88.13
62111;BME280;48102;47.526;19.072;2023-02-20T10:40:25;101211.59;;;10.76;85.25
62111;BME280;48102;47.526;19.072;2023-02-20T10:43:40;101204.16;;;11.54;79.89
62111;BME280;48102;47.526;19.072;2023-02-20T10:47:02;101193.06;;;12.51;72.92
62111;BME280;48102;47.526;19.072;2023-02-20T10:50:14;101185.66;;;11.76;74.08
62111;BME280;48102;47.526;19.072;2023-02-20T10:56:46;101169.03;;;11.52;76.60
62111;BME280;48102;47.526;19.072;2023-02-20T11:00:29;101164.62;;;11.75;75.40
62111;BME280;48102;47.526;19.072;2023-02-20T11:06:56;101151.47;;;12.16;70.64
62111;BME280;48102;47.526;19.072;2023-02-20T11:10:04;101137.47;;;12.14;73.28
62111;BME280;48102;47.526;19.072;2023-02-20T11:13:19;101143.84;;;12.08;71.11
62111;BME280;48102;47.526;19.072;2023-02-20T11:16:32;101130.62;;;12.28;73.54
62111;BME280;48102;47.526;19.072;2023-02-20T11:22:45;101114.03;;;11.64;73.32
62111;BME280;48102;47.526;19.072;2023-02-20T11:25:49;101122.47;;;11.51;75.19
62111;BME280;48102;47.526;19.072;2023-02-20T11:29:03;101100.94;;;11.83;75.48
62111;BME280;48102;47.526;19.072;2023-02-20T11:35:27;101099.66;;;11.71;75.10
62111;BME280;48102;47.526;19.072;2023-02-20T11:38:34;101104.75;;;11.96;74.47
62111;BME280;48102;47.526;19.072;2023-02-20T11:41:38;101102.19;;;12.15;74.86
62111;BME280;48102;47.526;19.072;2023-02-20T11:44:42;101087.69;;;11.84;74.71
62111;BME280;48102;47.526;19.072;2023-02-20T11:47:45;101076.41;;;12.20;75.98
62111;BME280;48102;47.526;19.072;2023-02-20T11:54:32;101056.53;;;12.11;74.13
62111;BME280;48102;47.526;19.072;2023-02-20T11:57:43;101056.56;;;12.30;74.04
62111;BME280;48102;47.526;19.072;2023-02-20T12:00:48;101049.44;;;12.51;73.08
62111;BME280;48102;47.526;19.072;2023-02-20T12:03:56;101034.88;;;12.42;73.07
62111;BME280;48102;47.526;19.072;2023-02-20T12:07:24;101030.00;;;12.52;71.68
62111;BME280;48102;47.526;19.072;2023-02-20T12:34:40;100975.84;;;13.14;63.60
62111;BME280;48102;47.526;19.072;2023-02-20T12:44:57;100960.44;;;13.05;63.08
62111;BME280;48102;47.526;19.072;2023-02-20T12:48:28;100967.53;;;13.22;64.09
62111;BME280;48102;47.526;19.072;2023-02-20T12:52:11;100964.50;;;13.47;60.62
62111;BME280;48102;47.526;19.072;2023-02-20T13:02:40;100951.31;;;14.91;57.37
62111;BME280;48102;47.526;19.072;2023-02-20T13:05:48;100957.84;;;15.60;54.16
62111;BME280;48102;47.526;19.072;2023-02-20T13:09:04;100957.97;;;15.28;54.80
62111;BME280;48102;47.526;19.072;2023-02-20T13:12:12;100967.84;;;14.80;55.31
62111;BME280;48102;47.526;19.072;2023-02-20T13:15:39;100957.03;;;14.53;58.62
62111;BME280;48102;47.526;19.072;2023-02-20T13:18:58;100954.50;;;14.82;58.15
62111;BME280;48102;47.526;19.072;2023-02-20T13:22:09;100954.25;;;14.70;58.19
62111;BME280;48102;47.526;19.072;2023-02-20T13:28:39;100945.63;;;14.35;59.63
62111;BME280;48102;47.526;19.072;2023-02-20T13:31:51;100927.81;;;13.57;61.86
62111;BME280;48102;47.526;19.072;2023-02-20T13:42:28;100928.37;;;13.46;63.35
62111;BME280;48102;47.526;19.072;2023-02-20T13:45:40;100919.25;;;13.85;59.86
62111;BME280;48102;47.526;19.072;2023-02-20T13:48:49;100929.97;;;13.99;59.20
62111;BME280;48102;47.526;19.072;2023-02-20T13:51:53;100918.84;;;14.40;57.68
62111;BME280;48102;47.526;19.072;2023-02-20T13:54:59;100915.88;;;14.30;56.21
62111;BME280;48102;47.526;19.072;2023-02-20T13:58:12;100909.69;;;13.98;56.52
62111;BME280;48102;47.526;19.072;2023-02-20T14:01:16;100887.91;;;13.60;58.03
62111;BME280;48102;47.526;19.072;2023-02-20T14:04:20;100889.97;;;13.54;57.86
62111;BME280;48102;47.526;19.072;2023-02-20T14:13:35;100884.41;;;12.57;60.14
62111;BME280;48102;47.526;19.072;2023-02-20T14:16:42;100889.28;;;12.64;60.67
62111;BME280;48102;47.526;19.072;2023-02-20T14:19:56;100894.44;;;12.67;60.40
62111;BME280;48102;47.526;19.072;2023-02-20T14:23:29;100906.47;;;12.73;59.58
62111;BME280;48102;47.526;19.072;2023-02-20T14:26:33;100908.81;;;12.62;59.33
62111;BME280;48102;47.526;19.072;2023-02-20T14:29:36;100879.12;;;12.57;60.42
62111;BME280;48102;47.526;19.072;2023-02-20T14:32:44;100887.25;;;12.52;60.55
62111;BME280;48102;47.526;19.072;2023-02-20T14:42:46;100863.69;;;12.82;59.34
62111;BME280;48102;47.526;19.072;2023-02-20T14:46:01;100845.03;;;13.53;57.30
62111;BME280;48102;47.526;19.072;2023-02-20T14:49:11;100857.72;;;14.11;54.01
62111;BME280;48102;47.526;19.072;2023-02-20T14:52:18;100854.44;;;13.59;55.63
62111;BME280;48102;47.526;19.072;2023-02-20T14:55:24;100859.56;;;13.62;56.36
62111;BME280;48102;47.526;19.072;2023-02-20T14:58:27;100851.34;;;13.50;55.75
62111;BME280;48102;47.526;19.072;2023-02-20T15:01:38;100851.78;;;13.08;57.43
62111;BME280;48102;47.526;19.072;2023-02-20T15:05:01;100847.22;;;12.60;59.08
62111;BME280;48102;47.526;19.072;2023-02-20T15:11:19;100849.31;;;12.17;61.97
62111;BME280;48102;47.526;19.072;2023-02-20T15:14:23;100850.63;;;12.08;61.97
62111;BME280;48102;47.526;19.072;2023-02-20T15:17:29;100834.94;;;12.05;62.38
62111;BME280;48102;47.526;19.072;2023-02-20T15:23:41;100824.84;;;12.13;61.32
62111;BME280;48102;47.526;19.072;2023-02-20T15:26:44;100827.97;;;12.21;62.75
62111;BME280;48102;47.526;19.072;2023-02-20T15:33:10;100815.81;;;12.36;60.41
62111;BME280;48102;47.526;19.072;2023-02-20T15:36:15;100810.25;;;12.23;61.87
62111;BME280;48102;47.526;19.072;2023-02-20T15:39:20;100801.28;;;12.09;62.76
62111;BME280;48102;47.526;19.072;2023-02-20T15:42:23;100801.09;;;11.94;63.21
62111;BME280;48102;47.526;19.072;2023-02-20T15:45:28;100806.31;;;11.77;64.31
62111;BME280;48102;47.526;19.072;2023-02-20T15:48:31;100790.25;;;11.63;71.32
62111;BME280;48102;47.526;19.072;2023-02-20T15:51:40;100793.25;;;11.36;78.48
62111;BME280;48102;47.526;19.072;2023-02-20T15:54:53;100790.03;;;11.11;83.65
62111;BME280;48102;47.526;19.072;2023-02-20T15:57:57;100775.34;;;10.85;87.33
62111;BME280;48102;47.526;19.072;2023-02-20T16:01:00;100776.66;;;10.74;89.79
62111;BME280;48102;47.526;19.072;2023-02-20T16:04:05;100768.94;;;10.70;90.53
62111;BME280;48102;47.526;19.072;2023-02-20T16:07:08;100768.03;;;10.50;93.35
62111;BME280;48102;47.526;19.072;2023-02-20T16:10:13;100760.38;;;10.44;94.48
62111;BME280;48102;47.526;19.072;2023-02-20T16:13:43;100748.09;;;10.45;95.00
62111;BME280;48102;47.526;19.072;2023-02-20T16:16:50;100743.66;;;10.25;97.10
62111;BME280;48102;47.526;19.072;2023-02-20T16:19:54;100754.31;;;10.00;99.67
62111;BME280;48102;47.526;19.072;2023-02-20T16:22:57;100737.19;;;9.90;100.00
62111;BME280;48102;47.526;19.072;2023-02-20T16:26:00;100733.53;;;9.72;100.00
62111;BME280;48102;47.526;19.072;2023-02-20T16:29:21;100732.16;;;9.62;100.00
62111;BME280;48102;47.526;19.072;2023-02-20T16:32:28;100724.72;;;9.51;100.00
62111;BME280;48102;47.526;19.072;2023-02-20T16:35:34;100718.03;;;9.42;100.00
